sensor_id;sensor_type;location;lat;lon;timestamp;P1;durP1;ratioP1;P2;durP2;ratioP2
67456;SDS011;54319;52.038;4.640;2023-02-28T00:01:48;6.97;;;2.42;;
67456;SDS011;54319;52.038;4.640;2023-02-28T00:04:16;4.15;;;2.50;;
67456;SDS011;54319;52.038;4.640;2023-02-28T00:09:09;2.08;;;1.92;;
67456;SDS011;54319;52.038;4.640;2023-02-28T00:11:36;9.40;;;2.00;;
67456;SDS011;54319;52.038;4.640;2023-02-28T00:14:04;5.03;;;2.30;;
67456;SDS011;54319;52.038;4.640;2023-02-28T00:16:31;6.82;;;2.08;;
67456;SDS011;54319;52.038;4.640;2023-02-28T00:18:57;4.60;;;2.55;;
67456;SDS011;54319;52.038;4.640;2023-02-28T00:21:24;3.30;;;2.03;;
67456;SDS011;54319;52.038;4.640;2023-02-28T00:23:51;2.22;;;1.73;;
67456;SDS011;54319;52.038;4.640;2023-02-28T00:26:18;3.75;;;2.30;;
67456;SDS011;54319;52.038;4.640;2023-02-28T00:28:44;3.72;;;1.95;;
67456;SDS011;54319;52.038;4.640;2023-02-28T00:31:12;2.35;;;1.63;;
67456;SDS011;54319;52.038;4.640;2023-02-28T00:33:39;5.53;;;2.03;;
67456;SDS011;54319;52.038;4.640;2023-02-28T00:36:07;6.15;;;1.90;;
67456;SDS011;54319;52.038;4.640;2023-02-28T00:38:36;5.95;;;2.10;;
67456;SDS011;54319;52.038;4.640;2023-02-28T00:41:03;3.55;;;2.13;;
67456;SDS011;54319;52.038;4.640;2023-02-28T00:43:32;4.97;;;1.90;;
67456;SDS011;54319;52.038;4.640;2023-02-28T00:45:59;2.90;;;1.80;;
67456;SDS011;54319;52.038;4.640;2023-02-28T00:48:28;3.45;;;1.98;;
67456;SDS011;54319;52.038;4.640;2023-02-28T00:50:55;2.53;;;1.88;;
67456;SDS011;54319;52.038;4.640;2023-02-28T00:53:22;3.25;;;2.10;;
67456;SDS011;54319;52.038;4.640;2023-02-28T00:55:49;3.55;;;2.28;;
67456;SDS011;54319;52.038;4.640;2023-02-28T00:58:16;3.15;;;1.98;;
67456;SDS011;54319;52.038;4.640;2023-02-28T01:00:42;3.53;;;2.17;;
67456;SDS011;54319;52.038;4.640;2023-02-28T01:03:13;4.60;;;2.42;;
67456;SDS011;54319;52.038;4.640;2023-02-28T01:05:43;6.65;;;1.92;;
67456;SDS011;54319;52.038;4.640;2023-02-28T01:08:10;3.05;;;1.70;;
67456;SDS011;54319;52.038;4.640;2023-02-28T01:10:38;2.30;;;2.10;;
67456;SDS011;54319;52.038;4.640;2023-02-28T01:13:04;3.55;;;2.13;;
67456;SDS011;54319;52.038;4.640;2023-02-28T01:15:31;3.38;;;2.13;;
67456;SDS011;54319;52.038;4.640;2023-02-28T01:17:58;4.07;;;1.80;;
67456;SDS011;54319;52.038;4.640;2023-02-28T01:20:25;3.13;;;1.73;;
67456;SDS011;54319;52.038;4.640;2023-02-28T01:22:53;5.18;;;2.08;;
67456;SDS011;54319;52.038;4.640;2023-02-28T01:25:19;3.92;;;1.98;;
67456;SDS011;54319;52.038;4.640;2023-02-28T01:27:46;4.57;;;2.25;;
67456;SDS011;54319;52.038;4.640;2023-02-28T01:30:13;7.72;;;2.03;;
67456;SDS011;54319;52.038;4.640;2023-02-28T01:32:40;5.20;;;2.47;;
67456;SDS011;54319;52.038;4.640;2023-02-28T01:35:06;4.15;;;2.35;;
67456;SDS011;54319;52.038;4.640;2023-02-28T01:37:33;4.35;;;2.45;;
67456;SDS011;54319;52.038;4.640;2023-02-28T01:40:01;5.70;;;2.00;;
67456;SDS011;54319;52.038;4.640;2023-02-28T01:42:29;3.58;;;2.30;;
67456;SDS011;54319;52.038;4.640;2023-02-28T01:44:59;7.22;;;2.15;;
67456;SDS011;54319;52.038;4.640;2023-02-28T01:47:28;4.47;;;2.03;;
67456;SDS011;54319;52.038;4.640;2023-02-28T01:49:58;4.40;;;2.25;;
67456;SDS011;54319;52.038;4.640;2023-02-28T01:52:26;2.92;;;2.00;;
67456;SDS011;54319;52.038;4.640;2023-02-28T01:54:55;2.90;;;1.92;;
67456;SDS011;54319;52.038;4.640;2023-02-28T01:57:26;3.78;;;2.38;;
67456;SDS011;54319;52.038;4.640;2023-02-28T02:00:03;4.35;;;2.00;;
67456;SDS011;54319;52.038;4.640;2023-02-28T02:02:34;2.90;;;1.80;;
67456;SDS011;54319;52.038;4.640;2023-02-28T02:05:05;2.95;;;2.13;;
67456;SDS011;54319;52.038;4.640;2023-02-28T02:07:35;4.07;;;2.30;;
67456;SDS011;54319;52.038;4.640;2023-02-28T02:10:06;3.15;;;2.15;;
67456;SDS011;54319;52.038;4.640;2023-02-28T02:12:49;2.00;;;1.80;;
67456;SDS011;54319;52.038;4.640;2023-02-28T02:15:32;2.80;;;2.10;;
67456;SDS011;54319;52.038;4.640;2023-02-28T02:18:03;4.70;;;2.53;;
67456;SDS011;54319;52.038;4.640;2023-02-28T02:29:48;2.60;;;1.85;;
67456;SDS011;54319;52.038;4.640;2023-02-28T02:35:45;4.38;;;2.17;;
67456;SDS011;54319;52.038;4.640;2023-02-28T02:38:19;2.97;;;2.28;;
67456;SDS011;54319;52.038;4.640;2023-02-28T02:40:55;7.32;;;2.20;;
67456;SDS011;54319;52.038;4.640;2023-02-28T02:43:25;3.28;;;2.17;;
67456;SDS011;54319;52.038;4.640;2023-02-28T02:46:01;6.25;;;2.28;;
67456;SDS011;54319;52.038;4.640;2023-02-28T02:48:33;3.72;;;1.83;;
67456;SDS011;54319;52.038;4.640;2023-02-28T02:51:05;4.82;;;2.05;;
67456;SDS011;54319;52.038;4.640;2023-02-28T02:53:38;2.75;;;2.13;;
67456;SDS011;54319;52.038;4.640;2023-02-28T02:56:09;3.47;;;2.28;;
67456;SDS011;54319;52.038;4.640;2023-02-28T02:58:39;5.85;;;2.50;;
67456;SDS011;54319;52.038;4.640;2023-02-28T03:01:08;4.93;;;2.25;;
67456;SDS011;54319;52.038;4.640;2023-02-28T03:03:38;4.78;;;2.40;;
67456;SDS011;54319;52.038;4.640;2023-02-28T03:06:06;5.77;;;2.63;;
67456;SDS011;54319;52.038;4.640;2023-02-28T03:08:35;9.10;;;2.83;;
67456;SDS011;54319;52.038;4.640;2023-02-28T03:11:03;4.93;;;2.45;;
67456;SDS011;54319;52.038;4.640;2023-02-28T03:16:42;3.55;;;2.40;;
67456;SDS011;54319;52.038;4.640;2023-02-28T03:19:34;3.75;;;2.50;;
67456;SDS011;54319;52.038;4.640;2023-02-28T03:22:17;4.43;;;2.50;;
67456;SDS011;54319;52.038;4.640;2023-02-28T03:24:56;4.63;;;2.75;;
67456;SDS011;54319;52.038;4.640;2023-02-28T03:27:33;4.65;;;2.78;;
67456;SDS011;54319;52.038;4.640;2023-02-28T03:30:09;7.03;;;3.00;;
67456;SDS011;54319;52.038;4.640;2023-02-28T03:32:40;5.15;;;3.30;;
67456;SDS011;54319;52.038;4.640;2023-02-28T03:35:14;5.22;;;3.13;;
67456;SDS011;54319;52.038;4.640;2023-02-28T03:37:49;5.38;;;2.80;;
67456;SDS011;54319;52.038;4.640;2023-02-28T03:40:19;5.18;;;3.10;;
67456;SDS011;54319;52.038;4.640;2023-02-28T03:42:49;6.78;;;2.92;;
67456;SDS011;54319;52.038;4.640;2023-02-28T03:45:20;4.47;;;2.90;;
67456;SDS011;54319;52.038;4.640;2023-02-28T03:47:52;5.20;;;3.20;;
67456;SDS011;54319;52.038;4.640;2023-02-28T03:50:21;6.75;;;3.00;;
67456;SDS011;54319;52.038;4.640;2023-02-28T03:52:53;5.43;;;2.90;;
67456;SDS011;54319;52.038;4.640;2023-02-28T03:55:26;4.55;;;3.20;;
67456;SDS011;54319;52.038;4.640;2023-02-28T03:57:57;5.25;;;3.40;;
67456;SDS011;54319;52.038;4.640;2023-02-28T04:00:28;4.60;;;2.72;;
67456;SDS011;54319;52.038;4.640;2023-02-28T04:03:00;5.47;;;3.13;;
67456;SDS011;54319;52.038;4.640;2023-02-28T04:05:26;7.90;;;3.17;;
67456;SDS011;54319;52.038;4.640;2023-02-28T04:07:55;4.82;;;3.53;;
67456;SDS011;54319;52.038;4.640;2023-02-28T04:10:31;3.60;;;2.78;;
67456;SDS011;54319;52.038;4.640;2023-02-28T04:15:24;5.55;;;3.03;;
67456;SDS011;54319;52.038;4.640;2023-02-28T04:17:52;4.50;;;3.15;;
67456;SDS011;54319;52.038;4.640;2023-02-28T04:20:19;6.20;;;3.33;;
67456;SDS011;54319;52.038;4.640;2023-02-28T04:22:45;5.10;;;3.03;;
67456;SDS011;54319;52.038;4.640;2023-02-28T04:25:13;4.55;;;2.95;;
67456;SDS011;54319;52.038;4.640;2023-02-28T04:27:40;5.35;;;3.00;;
67456;SDS011;54319;52.038;4.640;2023-02-28T04:30:10;8.27;;;3.60;;
67456;SDS011;54319;52.038;4.640;2023-02-28T04:32:37;6.68;;;2.97;;
67456;SDS011;54319;52.038;4.640;2023-02-28T04:35:04;6.72;;;2.97;;
67456;SDS011;54319;52.038;4.640;2023-02-28T04:37:31;5.18;;;2.95;;
67456;SDS011;54319;52.038;4.640;2023-02-28T04:39:59;5.82;;;3.10;;
67456;SDS011;54319;52.038;4.640;2023-02-28T04:42:27;6.90;;;3.33;;
67456;SDS011;54319;52.038;4.640;2023-02-28T04:45:00;4.93;;;3.17;;
67456;SDS011;54319;52.038;4.640;2023-02-28T04:47:27;11.02;;;3.53;;
67456;SDS011;54319;52.038;4.640;2023-02-28T04:49:54;6.90;;;3.67;;
67456;SDS011;54319;52.038;4.640;2023-02-28T04:54:47;5.75;;;3.53;;
67456;SDS011;54319;52.038;4.640;2023-02-28T04:57:14;5.00;;;3.47;;
67456;SDS011;54319;52.038;4.640;2023-02-28T04:59:42;8.70;;;4.22;;
67456;SDS011;54319;52.038;4.640;2023-02-28T05:02:09;5.15;;;3.60;;
67456;SDS011;54319;52.038;4.640;2023-02-28T05:04:36;10.77;;;3.78;;
67456;SDS011;54319;52.038;4.640;2023-02-28T05:07:02;5.70;;;4.00;;
67456;SDS011;54319;52.038;4.640;2023-02-28T05:09:29;7.47;;;4.00;;
67456;SDS011;54319;52.038;4.640;2023-02-28T05:11:59;7.25;;;4.00;;
67456;SDS011;54319;52.038;4.640;2023-02-28T05:16:53;8.77;;;4.07;;
67456;SDS011;54319;52.038;4.640;2023-02-28T05:19:20;7.18;;;4.47;;
67456;SDS011;54319;52.038;4.640;2023-02-28T05:21:49;7.57;;;4.28;;
67456;SDS011;54319;52.038;4.640;2023-02-28T05:24:17;12.65;;;4.80;;
67456;SDS011;54319;52.038;4.640;2023-02-28T05:26:48;9.90;;;4.40;;
67456;SDS011;54319;52.038;4.640;2023-02-28T05:29:15;10.23;;;4.55;;
67456;SDS011;54319;52.038;4.640;2023-02-28T05:31:42;7.10;;;4.50;;
67456;SDS011;54319;52.038;4.640;2023-02-28T05:34:10;8.75;;;4.90;;
67456;SDS011;54319;52.038;4.640;2023-02-28T05:36:37;7.18;;;4.40;;
67456;SDS011;54319;52.038;4.640;2023-02-28T05:39:04;6.50;;;4.25;;
67456;SDS011;54319;52.038;4.640;2023-02-28T05:43:58;9.30;;;4.35;;
67456;SDS011;54319;52.038;4.640;2023-02-28T05:46:25;8.13;;;4.60;;
67456;SDS011;54319;52.038;4.640;2023-02-28T05:48:52;10.98;;;5.20;;
67456;SDS011;54319;52.038;4.640;2023-02-28T05:51:21;8.45;;;4.85;;
67456;SDS011;54319;52.038;4.640;2023-02-28T05:53:47;8.05;;;5.03;;
67456;SDS011;54319;52.038;4.640;2023-02-28T05:56:14;9.43;;;4.82;;
67456;SDS011;54319;52.038;4.640;2023-02-28T06:01:26;7.30;;;4.28;;
67456;SDS011;54319;52.038;4.640;2023-02-28T06:03:58;6.97;;;4.70;;
67456;SDS011;54319;52.038;4.640;2023-02-28T06:06:27;8.27;;;4.88;;
67456;SDS011;54319;52.038;4.640;2023-02-28T06:08:55;6.63;;;4.72;;
67456;SDS011;54319;52.038;4.640;2023-02-28T06:11:22;9.93;;;4.80;;
67456;SDS011;54319;52.038;4.640;2023-02-28T06:13:53;6.28;;;4.18;;
67456;SDS011;54319;52.038;4.640;2023-02-28T06:16:21;7.25;;;3.50;;
67456;SDS011;54319;52.038;4.640;2023-02-28T06:18:48;6.70;;;4.10;;
67456;SDS011;54319;52.038;4.640;2023-02-28T06:21:14;10.95;;;3.75;;
67456;SDS011;54319;52.038;4.640;2023-02-28T06:23:43;6.32;;;3.47;;
67456;SDS011;54319;52.038;4.640;2023-02-28T06:26:09;4.15;;;3.13;;
67456;SDS011;54319;52.038;4.640;2023-02-28T06:28:36;4.23;;;2.97;;
67456;SDS011;54319;52.038;4.640;2023-02-28T06:31:06;4.00;;;3.20;;
67456;SDS011;54319;52.038;4.640;2023-02-28T06:33:34;6.68;;;2.90;;
67456;SDS011;54319;52.038;4.640;2023-02-28T06:36:01;5.13;;;2.70;;
67456;SDS011;54319;52.038;4.640;2023-02-28T06:38:28;4.57;;;2.97;;
67456;SDS011;54319;52.038;4.640;2023-02-28T06:40:56;4.57;;;3.10;;
67456;SDS011;54319;52.038;4.640;2023-02-28T06:43:24;4.55;;;2.80;;
67456;SDS011;54319;52.038;4.640;2023-02-28T06:45:53;4.63;;;3.08;;
67456;SDS011;54319;52.038;4.640;2023-02-28T06:48:21;5.70;;;3.30;;
67456;SDS011;54319;52.038;4.640;2023-02-28T06:50:47;4.70;;;3.00;;
67456;SDS011;54319;52.038;4.640;2023-02-28T06:53:14;4.93;;;3.45;;
67456;SDS011;54319;52.038;4.640;2023-02-28T06:55:41;4.22;;;3.10;;
67456;SDS011;54319;52.038;4.640;2023-02-28T06:58:09;7.97;;;3.60;;
67456;SDS011;54319;52.038;4.640;2023-02-28T07:00:41;5.43;;;3.50;;
67456;SDS011;54319;52.038;4.640;2023-02-28T07:03:08;8.23;;;4.15;;
67456;SDS011;54319;52.038;4.640;2023-02-28T07:05:35;7.10;;;4.05;;
67456;SDS011;54319;52.038;4.640;2023-02-28T07:08:03;5.20;;;3.43;;
67456;SDS011;54319;52.038;4.640;2023-02-28T07:10:31;4.50;;;3.50;;
67456;SDS011;54319;52.038;4.640;2023-02-28T07:12:57;6.90;;;3.75;;
67456;SDS011;54319;52.038;4.640;2023-02-28T07:15:26;5.07;;;3.78;;
67456;SDS011;54319;52.038;4.640;2023-02-28T07:17:52;5.60;;;3.63;;
67456;SDS011;54319;52.038;4.640;2023-02-28T07:20:19;7.97;;;3.35;;
67456;SDS011;54319;52.038;4.640;2023-02-28T07:22:46;5.88;;;3.42;;
67456;SDS011;54319;52.038;4.640;2023-02-28T07:25:20;6.75;;;3.70;;
67456;SDS011;54319;52.038;4.640;2023-02-28T07:27:46;4.43;;;3.45;;
67456;SDS011;54319;52.038;4.640;2023-02-28T07:30:13;7.13;;;3.72;;
67456;SDS011;54319;52.038;4.640;2023-02-28T07:32:41;5.10;;;3.72;;
67456;SDS011;54319;52.038;4.640;2023-02-28T07:35:08;4.93;;;3.80;;
67456;SDS011;54319;52.038;4.640;2023-02-28T07:37:35;4.82;;;3.67;;
67456;SDS011;54319;52.038;4.640;2023-02-28T07:40:02;4.88;;;3.85;;
67456;SDS011;54319;52.038;4.640;2023-02-28T07:42:33;6.85;;;3.65;;
67456;SDS011;54319;52.038;4.640;2023-02-28T07:45:00;6.93;;;4.65;;
67456;SDS011;54319;52.038;4.640;2023-02-28T07:47:28;4.25;;;3.50;;
67456;SDS011;54319;52.038;4.640;2023-02-28T07:49:56;5.28;;;4.03;;
67456;SDS011;54319;52.038;4.640;2023-02-28T07:52:23;6.80;;;4.13;;
67456;SDS011;54319;52.038;4.640;2023-02-28T07:54:50;6.57;;;4.30;;
67456;SDS011;54319;52.038;4.640;2023-02-28T07:57:18;5.82;;;4.53;;
67456;SDS011;54319;52.038;4.640;2023-02-28T08:02:11;6.35;;;4.32;;
67456;SDS011;54319;52.038;4.640;2023-02-28T08:04:39;6.40;;;4.22;;
67456;SDS011;54319;52.038;4.640;2023-02-28T08:07:07;6.50;;;4.82;;
67456;SDS011;54319;52.038;4.640;2023-02-28T08:09:34;9.75;;;5.07;;
67456;SDS011;54319;52.038;4.640;2023-02-28T08:12:01;7.80;;;5.13;;
67456;SDS011;54319;52.038;4.640;2023-02-28T08:14:28;9.15;;;4.90;;
67456;SDS011;54319;52.038;4.640;2023-02-28T08:16:55;8.35;;;4.72;;
67456;SDS011;54319;52.038;4.640;2023-02-28T08:19:21;8.68;;;6.18;;
67456;SDS011;54319;52.038;4.640;2023-02-28T08:21:48;7.60;;;5.78;;
67456;SDS011;54319;52.038;4.640;2023-02-28T08:24:16;20.42;;;11.52;;
67456;SDS011;54319;52.038;4.640;2023-02-28T08:26:46;12.43;;;6.85;;
67456;SDS011;54319;52.038;4.640;2023-02-28T08:29:12;8.15;;;4.55;;
67456;SDS011;54319;52.038;4.640;2023-02-28T08:31:41;11.15;;;5.07;;
67456;SDS011;54319;52.038;4.640;2023-02-28T08:34:08;5.95;;;4.88;;
67456;SDS011;54319;52.038;4.640;2023-02-28T08:36:37;7.38;;;4.90;;
67456;SDS011;54319;52.038;4.640;2023-02-28T08:39:04;9.03;;;5.63;;
67456;SDS011;54319;52.038;4.640;2023-02-28T08:41:33;7.45;;;5.53;;
67456;SDS011;54319;52.038;4.640;2023-02-28T08:44:00;7.28;;;5.50;;
67456;SDS011;54319;52.038;4.640;2023-02-28T08:46:26;6.85;;;5.40;;
67456;SDS011;54319;52.038;4.640;2023-02-28T08:48:53;8.30;;;5.80;;
67456;SDS011;54319;52.038;4.640;2023-02-28T08:51:21;8.63;;;5.88;;
67456;SDS011;54319;52.038;4.640;2023-02-28T08:53:51;7.03;;;5.13;;
67456;SDS011;54319;52.038;4.640;2023-02-28T08:56:18;8.15;;;6.13;;
67456;SDS011;54319;52.038;4.640;2023-02-28T08:58:47;8.07;;;5.47;;
67456;SDS011;54319;52.038;4.640;2023-02-28T09:01:15;7.47;;;5.47;;
67456;SDS011;54319;52.038;4.640;2023-02-28T09:03:43;9.48;;;6.13;;
67456;SDS011;54319;52.038;4.640;2023-02-28T09:08:38;9.63;;;5.67;;
67456;SDS011;54319;52.038;4.640;2023-02-28T09:11:05;8.20;;;6.25;;
67456;SDS011;54319;52.038;4.640;2023-02-28T09:13:32;8.48;;;6.03;;
67456;SDS011;54319;52.038;4.640;2023-02-28T09:16:02;8.02;;;6.00;;
67456;SDS011;54319;52.038;4.640;2023-02-28T09:18:30;9.43;;;6.60;;
67456;SDS011;54319;52.038;4.640;2023-02-28T09:20:57;9.65;;;7.38;;
67456;SDS011;54319;52.038;4.640;2023-02-28T09:23:25;9.73;;;6.47;;
67456;SDS011;54319;52.038;4.640;2023-02-28T09:25:52;9.13;;;6.97;;
67456;SDS011;54319;52.038;4.640;2023-02-28T09:28:20;10.00;;;5.97;;
67456;SDS011;54319;52.038;4.640;2023-02-28T09:30:55;10.88;;;6.32;;
67456;SDS011;54319;52.038;4.640;2023-02-28T09:33:24;13.00;;;6.57;;
67456;SDS011;54319;52.038;4.640;2023-02-28T09:35:57;7.85;;;5.75;;
67456;SDS011;54319;52.038;4.640;2023-02-28T09:38:24;7.13;;;5.35;;
67456;SDS011;54319;52.038;4.640;2023-02-28T09:40:52;9.73;;;5.30;;
67456;SDS011;54319;52.038;4.640;2023-02-28T09:43:23;9.75;;;5.40;;
67456;SDS011;54319;52.038;4.640;2023-02-28T09:45:53;6.40;;;4.90;;
67456;SDS011;54319;52.038;4.640;2023-02-28T09:48:27;8.23;;;5.43;;
67456;SDS011;54319;52.038;4.640;2023-02-28T09:51:00;8.38;;;5.07;;
67456;SDS011;54319;52.038;4.640;2023-02-28T09:53:30;10.32;;;4.90;;
67456;SDS011;54319;52.038;4.640;2023-02-28T09:56:04;7.55;;;5.05;;
67456;SDS011;54319;52.038;4.640;2023-02-28T09:58:44;8.93;;;5.28;;
67456;SDS011;54319;52.038;4.640;2023-02-28T10:01:18;8.20;;;4.80;;
67456;SDS011;54319;52.038;4.640;2023-02-28T10:03:54;7.05;;;4.95;;
67456;SDS011;54319;52.038;4.640;2023-02-28T10:06:26;6.93;;;4.68;;
67456;SDS011;54319;52.038;4.640;2023-02-28T10:08:57;6.80;;;4.35;;
67456;SDS011;54319;52.038;4.640;2023-02-28T10:11:27;7.18;;;4.30;;
67456;SDS011;54319;52.038;4.640;2023-02-28T10:13:56;6.95;;;4.43;;
67456;SDS011;54319;52.038;4.640;2023-02-28T10:16:30;7.03;;;4.40;;
67456;SDS011;54319;52.038;4.640;2023-02-28T10:19:05;8.95;;;4.70;;
67456;SDS011;54319;52.038;4.640;2023-02-28T10:21:38;7.20;;;4.22;;
67456;SDS011;54319;52.038;4.640;2023-02-28T10:24:12;7.00;;;4.30;;
67456;SDS011;54319;52.038;4.640;2023-02-28T10:26:46;6.05;;;3.85;;
67456;SDS011;54319;52.038;4.640;2023-02-28T10:29:14;7.32;;;4.28;;
67456;SDS011;54319;52.038;4.640;2023-02-28T10:31:41;6.93;;;3.78;;
67456;SDS011;54319;52.038;4.640;2023-02-28T10:34:09;5.45;;;4.00;;
67456;SDS011;54319;52.038;4.640;2023-02-28T10:36:38;5.15;;;3.80;;
67456;SDS011;54319;52.038;4.640;2023-02-28T10:42:05;6.05;;;3.60;;
67456;SDS011;54319;52.038;4.640;2023-02-28T10:44:46;5.07;;;3.50;;
67456;SDS011;54319;52.038;4.640;2023-02-28T10:47:13;3.70;;;3.05;;
67456;SDS011;54319;52.038;4.640;2023-02-28T10:49:47;3.67;;;3.05;;
67456;SDS011;54319;52.038;4.640;2023-02-28T10:52:32;3.25;;;2.85;;
67456;SDS011;54319;52.038;4.640;2023-02-28T10:55:13;5.07;;;3.15;;
67456;SDS011;54319;52.038;4.640;2023-02-28T10:57:46;6.07;;;3.47;;
67456;SDS011;54319;52.038;4.640;2023-02-28T11:00:14;4.35;;;2.90;;
67456;SDS011;54319;52.038;4.640;2023-02-28T11:02:44;6.20;;;3.45;;
67456;SDS011;54319;52.038;4.640;2023-02-28T11:05:26;4.13;;;2.97;;
67456;SDS011;54319;52.038;4.640;2023-02-28T11:07:55;3.22;;;2.55;;
67456;SDS011;54319;52.038;4.640;2023-02-28T11:10:26;3.15;;;2.72;;
67456;SDS011;54319;52.038;4.640;2023-02-28T11:12:57;3.72;;;2.83;;
67456;SDS011;54319;52.038;4.640;2023-02-28T11:15:25;5.05;;;2.85;;
67456;SDS011;54319;52.038;4.640;2023-02-28T11:17:56;4.82;;;2.75;;
67456;SDS011;54319;52.038;4.640;2023-02-28T11:20:27;3.25;;;2.55;;
67456;SDS011;54319;52.038;4.640;2023-02-28T11:22:55;3.13;;;2.53;;
67456;SDS011;54319;52.038;4.640;2023-02-28T11:25:25;3.47;;;2.60;;
67456;SDS011;54319;52.038;4.640;2023-02-28T11:27:55;2.95;;;2.40;;
67456;SDS011;54319;52.038;4.640;2023-02-28T11:30:27;3.03;;;2.30;;
67456;SDS011;54319;52.038;4.640;2023-02-28T11:33:00;2.28;;;2.08;;
67456;SDS011;54319;52.038;4.640;2023-02-28T11:35:43;2.63;;;2.17;;
67456;SDS011;54319;52.038;4.640;2023-02-28T11:38:10;2.35;;;2.03;;
67456;SDS011;54319;52.038;4.640;2023-02-28T11:40:41;2.92;;;2.28;;
67456;SDS011;54319;52.038;4.640;2023-02-28T11:43:25;3.92;;;2.25;;
67456;SDS011;54319;52.038;4.640;2023-02-28T11:46:06;2.55;;;2.30;;
67456;SDS011;54319;52.038;4.640;2023-02-28T11:48:46;3.00;;;2.30;;
67456;SDS011;54319;52.038;4.640;2023-02-28T11:51:27;2.53;;;2.30;;
67456;SDS011;54319;52.038;4.640;2023-02-28T11:57:03;3.97;;;2.13;;
67456;SDS011;54319;52.038;4.640;2023-02-28T11:59:46;2.45;;;2.20;;
67456;SDS011;54319;52.038;4.640;2023-02-28T12:02:22;2.80;;;2.40;;
67456;SDS011;54319;52.038;4.640;2023-02-28T12:04:53;3.45;;;2.40;;
67456;SDS011;54319;52.038;4.640;2023-02-28T12:07:36;2.22;;;2.03;;
67456;SDS011;54319;52.038;4.640;2023-02-28T12:10:11;3.28;;;2.40;;
67456;SDS011;54319;52.038;4.640;2023-02-28T12:12:47;2.50;;;2.20;;
67456;SDS011;54319;52.038;4.640;2023-02-28T12:15:32;4.70;;;2.30;;
67456;SDS011;54319;52.038;4.640;2023-02-28T12:18:16;2.28;;;2.08;;
67456;SDS011;54319;52.038;4.640;2023-02-28T12:20:57;2.60;;;2.38;;
67456;SDS011;54319;52.038;4.640;2023-02-28T12:23:44;3.33;;;2.28;;
67456;SDS011;54319;52.038;4.640;2023-02-28T12:26:22;3.17;;;2.28;;
67456;SDS011;54319;52.038;4.640;2023-02-28T12:28:59;3.42;;;2.47;;
67456;SDS011;54319;52.038;4.640;2023-02-28T12:31:35;3.50;;;2.40;;
67456;SDS011;54319;52.038;4.640;2023-02-28T12:34:05;2.17;;;1.90;;
67456;SDS011;54319;52.038;4.640;2023-02-28T12:36:35;5.40;;;2.17;;
67456;SDS011;54319;52.038;4.640;2023-02-28T12:39:07;2.63;;;2.20;;
67456;SDS011;54319;52.038;4.640;2023-02-28T12:41:40;2.90;;;2.42;;
67456;SDS011;54319;52.038;4.640;2023-02-28T12:44:11;3.60;;;2.10;;
67456;SDS011;54319;52.038;4.640;2023-02-28T12:46:45;2.85;;;2.30;;
67456;SDS011;54319;52.038;4.640;2023-02-28T12:49:16;2.53;;;1.90;;
67456;SDS011;54319;52.038;4.640;2023-02-28T12:51:47;2.45;;;2.00;;
67456;SDS011;54319;52.038;4.640;2023-02-28T12:54:18;2.97;;;2.25;;
67456;SDS011;54319;52.038;4.640;2023-02-28T12:56:55;3.72;;;1.92;;
67456;SDS011;54319;52.038;4.640;2023-02-28T12:59:32;3.15;;;2.20;;
67456;SDS011;54319;52.038;4.640;2023-02-28T13:05:16;2.17;;;1.90;;
67456;SDS011;54319;52.038;4.640;2023-02-28T13:08:04;3.55;;;2.33;;
67456;SDS011;54319;52.038;4.640;2023-02-28T13:10:48;2.20;;;1.95;;
67456;SDS011;54319;52.038;4.640;2023-02-28T13:13:20;2.85;;;2.20;;
67456;SDS011;54319;52.038;4.640;2023-02-28T13:15:58;2.30;;;2.10;;
67456;SDS011;54319;52.038;4.640;2023-02-28T13:18:31;2.38;;;2.15;;
67456;SDS011;54319;52.038;4.640;2023-02-28T13:21:01;3.13;;;2.20;;
67456;SDS011;54319;52.038;4.640;2023-02-28T13:23:38;3.23;;;2.30;;
67456;SDS011;54319;52.038;4.640;2023-02-28T13:29:40;2.72;;;2.15;;
67456;SDS011;54319;52.038;4.640;2023-02-28T13:38:12;2.10;;;1.90;;
67456;SDS011;54319;52.038;4.640;2023-02-28T13:40:43;2.88;;;2.38;;
67456;SDS011;54319;52.038;4.640;2023-02-28T13:43:11;2.25;;;2.05;;
67456;SDS011;54319;52.038;4.640;2023-02-28T13:45:54;3.22;;;2.40;;
67456;SDS011;54319;52.038;4.640;2023-02-28T13:48:32;2.50;;;2.00;;
67456;SDS011;54319;52.038;4.640;2023-02-28T13:51:00;2.67;;;2.20;;
67456;SDS011;54319;52.038;4.640;2023-02-28T13:54:05;3.63;;;2.47;;
67456;SDS011;54319;52.038;4.640;2023-02-28T13:56:52;3.00;;;2.42;;
67456;SDS011;54319;52.038;4.640;2023-02-28T13:59:32;3.30;;;2.13;;
67456;SDS011;54319;52.038;4.640;2023-02-28T14:05:00;2.33;;;1.80;;
67456;SDS011;54319;52.038;4.640;2023-02-28T14:07:32;2.30;;;2.00;;
67456;SDS011;54319;52.038;4.640;2023-02-28T14:10:21;5.68;;;2.20;;
67456;SDS011;54319;52.038;4.640;2023-02-28T14:12:59;3.15;;;2.15;;
67456;SDS011;54319;52.038;4.640;2023-02-28T14:15:30;2.00;;;1.80;;
67456;SDS011;54319;52.038;4.640;2023-02-28T14:18:11;3.42;;;2.00;;
67456;SDS011;54319;52.038;4.640;2023-02-28T14:20:42;4.00;;;2.25;;
67456;SDS011;54319;52.038;4.640;2023-02-28T14:23:13;3.15;;;1.98;;
67456;SDS011;54319;52.038;4.640;2023-02-28T14:25:45;2.13;;;1.90;;
67456;SDS011;54319;52.038;4.640;2023-02-28T14:28:21;2.65;;;1.92;;
67456;SDS011;54319;52.038;4.640;2023-02-28T14:31:00;2.15;;;1.95;;
67456;SDS011;54319;52.038;4.640;2023-02-28T14:36:39;3.30;;;2.10;;
67456;SDS011;54319;52.038;4.640;2023-02-28T14:39:10;3.13;;;1.98;;
67456;SDS011;54319;52.038;4.640;2023-02-28T14:41:39;2.55;;;2.00;;
67456;SDS011;54319;52.038;4.640;2023-02-28T14:44:14;2.42;;;1.95;;
67456;SDS011;54319;52.038;4.640;2023-02-28T14:46:44;4.82;;;2.20;;
67456;SDS011;54319;52.038;4.640;2023-02-28T14:49:13;3.63;;;2.50;;
67456;SDS011;54319;52.038;4.640;2023-02-28T14:51:45;2.10;;;1.90;;
67456;SDS011;54319;52.038;4.640;2023-02-28T14:54:13;3.92;;;2.00;;
67456;SDS011;54319;52.038;4.640;2023-02-28T14:56:42;2.53;;;1.88;;
67456;SDS011;54319;52.038;4.640;2023-02-28T14:59:26;3.43;;;2.00;;
67456;SDS011;54319;52.038;4.640;2023-02-28T15:04:54;2.53;;;1.92;;
67456;SDS011;54319;52.038;4.640;2023-02-28T15:07:30;2.50;;;1.88;;
67456;SDS011;54319;52.038;4.640;2023-02-28T15:10:09;3.22;;;1.90;;
67456;SDS011;54319;52.038;4.640;2023-02-28T15:12:41;2.00;;;1.80;;
67456;SDS011;54319;52.038;4.640;2023-02-28T15:15:15;2.17;;;1.98;;
67456;SDS011;54319;52.038;4.640;2023-02-28T15:20:12;4.00;;;1.92;;
67456;SDS011;54319;52.038;4.640;2023-02-28T15:22:43;2.00;;;1.80;;
67456;SDS011;54319;52.038;4.640;2023-02-28T15:25:14;1.80;;;1.70;;
67456;SDS011;54319;52.038;4.640;2023-02-28T15:27:45;4.30;;;1.95;;
67456;SDS011;54319;52.038;4.640;2023-02-28T15:30:16;3.15;;;2.10;;
67456;SDS011;54319;52.038;4.640;2023-02-28T15:32:44;2.60;;;1.92;;
67456;SDS011;54319;52.038;4.640;2023-02-28T15:35:29;2.35;;;2.05;;
67456;SDS011;54319;52.038;4.640;2023-02-28T15:38:01;2.17;;;1.98;;
67456;SDS011;54319;52.038;4.640;2023-02-28T15:40:31;2.85;;;2.10;;
67456;SDS011;54319;52.038;4.640;2023-02-28T15:43:05;3.03;;;2.30;;
67456;SDS011;54319;52.038;4.640;2023-02-28T15:45:41;2.67;;;2.30;;
67456;SDS011;54319;52.038;4.640;2023-02-28T15:48:16;3.50;;;2.30;;
67456;SDS011;54319;52.038;4.640;2023-02-28T15:50:46;3.75;;;2.50;;
67456;SDS011;54319;52.038;4.640;2023-02-28T15:53:17;4.75;;;2.70;;
67456;SDS011;54319;52.038;4.640;2023-02-28T15:55:51;4.97;;;2.35;;
67456;SDS011;54319;52.038;4.640;2023-02-28T15:58:21;2.58;;;2.38;;
67456;SDS011;54319;52.038;4.640;2023-02-28T16:01:00;4.60;;;2.47;;
67456;SDS011;54319;52.038;4.640;2023-02-28T16:03:35;5.22;;;2.35;;
67456;SDS011;54319;52.038;4.640;2023-02-28T16:08:59;3.75;;;2.75;;
67456;SDS011;54319;52.038;4.640;2023-02-28T16:11:26;2.92;;;2.40;;
67456;SDS011;54319;52.038;4.640;2023-02-28T16:13:55;3.75;;;2.47;;
67456;SDS011;54319;52.038;4.640;2023-02-28T16:16:23;3.10;;;2.50;;
67456;SDS011;54319;52.038;4.640;2023-02-28T16:18:53;4.10;;;2.60;;